In Rescue
 
Open Full Screen Window  High Contrast Mode
Wind Gusting 00 knots
03
March 19, 2019 6:48 PM EDT
Weather Information
Wind Direction
  140 °
Wind Speed
  03 kt (3 mph)
Wind Gust
  00 kt (0 mph)
Altimeter
30.20 in
Visibility
10 SM
Temperature
03° C
37° F
Dewpoint
-02° C
28° F
Humidity
70%
1hr Rain Fall
00.00 in.
24hr Rain Fall
00.00 in.
Sky Condition
Overcast @ 11,000 ft
VFR

METAR KDRM 192248Z AUTO 14003KT 10SM OVC110 03/M02 A3020 RMK AO2 T00281025

FAA Disclaimer: The data displayed is for advisory purposes only and is not to be used for flight planning or operations.